Date,TemperatureHighF,TemperatureAvgF,TemperatureLowF,DewpointHighF,DewpointAvgF,DewpointLowF,HumidityHigh,HumidityAvg,HumidityLow,PressureMaxIn,PressureMinIn,WindSpeedMaxMPH,WindSpeedAvgMPH,GustSpeedMaxMPH,PrecipitationSumIn
2013-1-1,50,46,42,41,38,34,86,74,57,30.24,30.19,9,4,0,0.00
2013-1-2,53,47,42,38,36,34,85,69,50,30.21,30.12,6,3,0,0.00
2013-1-3,53,47,42,41,39,37,89,75,64,30.22,30.14,4,2,0,0.00
2013-1-4,56,49,43,40,38,37,87,68,51,30.26,30.16,8,4,0,0.00
2013-1-5,51,48,45,48,44,41,95,88,80,30.23,30.04,5,1,0,0.00
2013-1-6,49,47,44,47,44,42,95,88,77,30.17,30.03,10,4,0,0.00
2013-1-7,56,49,44,52,45,42,95,88,77,30.23,30.15,5,1,0,0.00
2013-1-8,57,52,46,47,46,44,92,81,69,30.22,30.12,4,1,0,0.00
2013-1-9,51,48,46,49,44,38,93,85,73,30.13,29.99,16,5,0,0.00
2013-1-10,49,45,43,38,36,34,78,70,57,30.16,30.06,13,8,0,0.00
2013-1-11,48,45,43,41,37,32,85,73,63,30.24,30.11,15,7,0,0.00
2013-1-12,48,44,41,38,33,26,83,67,43,30.22,30.12,6,2,0,0.00
2013-1-13,48,43,38,35,27,21,70,55,40,30.24,30.16,8,3,0,0.00
2013-1-14,49,44,39,35,21,17,67,41,31,30.37,30.20,11,5,0,0.00
2013-1-15,52,46,40,37,33,29,82,63,41,30.45,30.37,4,2,0,0.00
2013-1-16,55,47,40,38,36,34,86,67,49,30.40,30.23,6,4,0,0.00
2013-1-17,60,51,44,39,36,34,75,57,38,30.24,30.13,7,4,0,0.00
2013-1-18,62,53,46,40,36,33,77,55,35,30.21,30.12,7,4,0,0.00
2013-1-19,61,53,45,38,36,34,73,54,37,30.22,30.14,7,3,0,0.00
2013-1-20,62,54,48,38,35,33,66,51,35,30.20,30.11,8,3,0,0.00
2013-1-21,61,52,46,41,38,34,71,58,45,30.15,30.06,8,5,0,0.00
2013-1-22,59,53,46,42,40,39,80,64,52,30.09,29.99,7,3,0,0.00
2013-1-23,56,52,50,49,45,41,93,77,58,30.06,29.95,2,1,0,0.00
2013-1-24,56,53,50,51,50,48,94,89,82,30.16,30.05,7,3,0,0.00
2013-1-25,62,56,51,55,52,49,94,87,76,30.17,30.03,3,1,0,0.00
2013-1-26,52,50,48,50,46,42,96,85,77,30.05,29.99,15,10,0,0.00
2013-1-27,52,48,45,43,39,36,82,72,59,30.14,30.06,15,10,0,0.00
2013-1-28,53,48,45,44,41,37,84,75,65,30.26,30.15,14,7,0,0.00
2013-1-29,54,49,46,46,43,41,86,80,70,30.34,30.25,9,6,0,0.00
2013-1-30,61,54,49,48,45,42,89,72,50,30.32,30.25,7,2,0,0.00
2013-1-31,62,55,46,48,46,43,90,72,60,30.27,30.16,6,3,0,0.00
2013-2-1,63,54,48,47,46,44,87,74,55,30.19,30.10,7,4,0,0.00
2013-2-2,54,50,47,49,47,45,95,90,83,30.27,30.20,9,4,0,0.00
2013-2-3,54,50,47,46,44,42,93,81,69,30.23,30.13,12,6,0,0.00
2013-2-4,52,48,46,48,46,44,95,92,84,30.16,30.06,7,3,0,0.00
2013-2-5,51,48,47,48,45,42,93,88,84,30.12,30.06,13,8,0,0.00
2013-2-6,53,49,45,46,44,41,92,83,66,30.18,30.12,14,6,0,0.00
2013-2-7,51,47,43,47,44,40,93,87,73,30.15,30.00,10,3,0,0.00
2013-2-8,51,46,41,41,39,31,93,79,46,30.00,29.92,14,6,0,0.00
2013-2-9,54,50,47,40,33,27,76,53,37,30.07,29.98,9,5,0,0.00
2013-2-10,58,49,43,45,39,34,89,70,45,30.10,30.01,8,2,0,0.00
2013-2-11,61,52,47,46,36,29,92,57,32,30.20,30.05,13,4,0,0.00
2013-2-12,57,49,45,46,45,43,94,86,65,30.34,30.22,7,2,0,0.00
2013-2-13,57,49,44,48,45,42,95,89,63,30.32,30.21,11,4,0,0.00
2013-2-14,66,54,46,48,45,43,96,74,44,30.22,30.15,7,2,0,0.00
2013-2-15,70,61,54,46,43,41,71,53,38,30.25,30.19,6,3,0,0.00
2013-2-16,67,56,48,49,46,43,94,70,49,30.21,30.05,18,5,0,0.00
2013-2-17,56,50,46,47,45,44,94,84,65,30.04,29.96,18,7,0,0.00
2013-2-18,49,47,46,45,42,40,92,82,74,30.02,29.95,13,8,0,0.00
2013-2-19,47,44,42,43,39,34,92,82,72,29.95,29.74,15,8,0,0.00
2013-2-20,52,47,41,43,39,33,83,74,60,30.04,29.83,19,9,0,0.00
2013-2-21,54,49,45,44,39,34,89,71,49,30.14,30.04,15,7,0,0.00
2013-2-22,55,49,45,45,43,39,89,81,62,30.23,30.15,18,7,0,0.00
2013-2-23,52,50,47,46,41,34,94,73,54,30.22,30.15,20,12,0,0.00
2013-2-24,57,51,46,43,32,25,87,52,35,30.23,30.16,9,6,0,0.00
2013-2-25,54,49,45,47,44,43,93,85,72,30.24,30.16,16,7,0,0.00
2013-2-26,58,50,45,44,37,27,87,65,30,30.19,30.14,11,5,0,0.00
2013-2-27,60,52,46,49,44,40,91,77,54,30.34,30.19,13,6,0,0.00
2013-2-28,55,50,48,51,48,46,95,92,85,30.44,30.35,16,5,0,0.00
2013-3-1,69,55,48,54,49,47,97,82,53,30.41,30.23,6,2,0,0.00
2013-3-2,65,56,49,53,50,47,94,81,64,30.22,30.07,10,4,0,0.00
2013-3-3,51,49,47,48,47,45,95,93,90,30.09,30.04,18,12,0,0.00
2013-3-4,50,47,45,45,44,42,94,88,78,30.13,30.05,17,6,0,0.00
2013-3-5,55,49,44,46,42,40,89,78,67,30.05,29.83,13,5,0,0.00
2013-3-6,53,50,46,47,45,43,92,83,71,30.05,29.83,13,6,0,0.00
2013-3-7,52,47,45,45,42,40,92,83,70,29.97,29.85,8,4,0,0.00
2013-3-9,56,52,48,46,9,-100,88,63,77,30.29,30.24,2,-249,0,0.00
2013-3-10,62,53,47,49,45,38,93,77,45,30.32,30.25,9,4,0,0.00
2013-3-11,66,52,45,50,46,42,95,82,52,30.25,30.11,11,5,0,0.00
2013-3-12,62,51,46,52,48,45,96,89,70,30.14,30.07,12,4,0,0.00
2013-3-13,72,53,45,54,49,44,96,86,52,30.14,30.06,5,1,0,0.00
2013-3-14,56,50,46,52,48,45,96,90,77,30.16,30.08,13,4,0,0.00
2013-3-15,59,52,47,50,48,45,95,88,72,30.12,30.04,18,6,0,0.00
2013-3-16,57,51,47,52,47,46,97,88,77,30.08,30.02,23,10,0,0.00
2013-3-17,58,52,48,46,45,43,86,78,61,30.13,30.04,20,9,0,0.00
2013-3-18,56,50,46,48,46,44,94,86,70,30.10,30.04,14,6,0,0.00
2013-3-19,55,50,47,48,45,43,92,85,70,30.11,30.05,10,4,0,0.00
2013-3-20,57,52,49,53,49,44,96,90,80,30.13,30.06,6,3,0,0.00
2013-3-21,55,49,44,47,44,40,96,81,66,30.12,30.01,14,8,0,0.00
2013-3-22,59,52,46,43,39,28,86,64,36,30.11,30.02,17,4,0,0.00
2013-3-23,63,53,47,45,39,31,87,62,34,30.11,30.05,16,5,0,0.00
2013-3-24,55,49,46,47,45,44,93,86,73,30.08,29.97,18,7,0,0.00
2013-3-25,50,48,46,45,44,44,92,87,79,30.02,29.95,13,9,0,0.00
2013-3-26,53,49,47,47,45,43,92,86,74,30.00,29.93,16,9,0,0.00
2013-3-27,56,52,48,52,50,46,97,92,82,29.99,29.94,7,3,0,0.00
2013-3-28,59,55,52,54,52,51,96,91,81,30.08,29.99,9,4,0,0.00
2013-3-29,71,54,50,55,50,48,96,86,57,30.07,30.02,15,4,0,0.00
2013-3-30,64,55,50,54,49,-100,97,88,62,30.06,29.98,10,5,0,0.00
2013-3-31,62,57,53,55,52,51,94,85,72,30.05,30.00,7,3,0,0.00
2013-4-1,57,54,52,54,52,51,96,92,84,30.14,30.03,11,4,0,0.00
2013-4-2,53,51,48,51,49,47,96,93,87,30.18,30.09,17,8,0,0.00
2013-4-3,66,51,48,53,48,47,97,90,54,30.12,29.99,10,4,0,0.00
2013-4-4,61,54,49,56,52,48,97,94,83,30.10,29.99,8,5,0,0.00
2013-4-5,57,54,51,54,52,50,97,93,82,30.19,30.11,10,5,0,0.00
2013-4-6,56,53,51,54,52,50,97,95,92,30.19,30.14,14,6,0,0.00
2013-4-7,56,53,51,53,50,48,94,91,83,30.16,29.89,15,8,0,0.00
2013-4-8,56,51,47,47,42,38,88,72,57,30.00,29.83,26,16,0,0.00
2013-4-9,66,61,57,46,38,33,52,44,35,30.08,30.01,13,9,0,0.00
2013-4-10,71,60,50,52,50,42,95,72,43,30.17,30.05,25,15,0,0.00
2013-4-11,59,52,48,49,47,45,94,83,67,30.06,29.85,23,10,0,0.00
2013-4-12,57,50,47,50,46,45,94,87,76,29.91,29.83,18,8,0,0.00
2013-4-13,56,50,47,48,45,43,92,82,72,29.89,29.83,29,13,0,0.00
2013-4-14,55,49,45,44,42,40,87,76,64,29.93,29.88,22,9,0,0.00
2013-4-15,50,47,45,45,41,39,94,80,68,29.93,29.86,25,14,0,0.00
2013-4-16,57,51,44,43,39,36,76,64,48,30.12,29.94,14,8,0,0.00
2013-4-17,62,56,49,43,36,29,80,48,28,30.26,30.15,14,9,0,0.00
2013-4-18,68,55,48,47,44,37,89,66,38,30.26,30.19,14,5,0,0.00
2013-4-19,66,54,47,51,48,45,93,80,59,30.22,30.06,16,6,0,0.00
2013-4-20,68,54,48,51,47,45,92,78,45,30.10,30.00,15,7,0,0.00
2013-4-21,75,59,48,51,48,45,91,70,40,30.03,29.93,8,2,0,0.00
2013-4-22,81,66,54,51,47,43,83,54,28,29.96,29.86,16,4,0,0.00
2013-4-23,70,57,48,49,42,27,92,66,20,29.93,29.86,15,8,0,0.00
2013-4-24,53,50,46,49,47,44,95,91,85,29.93,29.83,14,8,0,0.00
2013-4-25,56,53,51,50,49,47,94,87,80,30.12,29.94,14,8,0,0.00
2013-4-26,54,50,48,49,47,46,92,88,82,30.22,30.12,19,8,0,0.00
2013-4-27,53,49,47,49,47,45,96,93,86,30.22,30.08,15,7,0,0.00
2013-4-28,66,55,48,53,49,46,95,80,61,30.07,29.88,10,4,0,0.00
2013-4-29,71,60,53,55,51,48,86,72,57,29.90,29.77,12,5,0,0.00
2013-4-30,63,56,49,50,47,46,90,75,60,29.86,29.80,11,5,0,0.00
2013-5-1,72,65,54,50,41,26,79,47,19,30.07,29.84,10,6,0,0.00
2013-5-2,87,68,56,52,41,29,76,44,19,30.14,30.07,20,5,0,0.00
2013-5-3,78,65,57,51,41,33,71,43,22,30.08,29.81,14,5,0,0.00
2013-5-4,65,58,52,53,50,39,90,75,49,29.79,29.57,23,8,0,0.00
2013-5-5,64,59,54,51,49,48,80,71,59,29.78,29.60,7,4,0,0.00
2013-5-6,64,59,56,52,51,49,83,74,61,29.94,29.80,9,5,0,0.00
2013-5-7,62,57,52,55,52,50,95,84,75,30.04,29.95,16,7,0,0.00
2013-5-8,55,52,50,51,50,48,96,91,86,30.13,30.03,18,10,0,0.00
2013-5-9,54,52,50,49,48,47,91,89,84,30.16,30.10,21,14,0,0.00
2013-5-10,52,48,49,51,44,-100,96,95,92,30.17,30.11,24,12,0,0.00
2013-5-11,63,52,48,58,48,-100,100,92,72,30.15,30.06,17,6,0,0.00
2013-5-12,57,54,51,53,52,50,96,94,84,30.15,30.04,21,8,0,0.00
2013-5-13,57,53,50,54,51,49,97,93,85,30.09,29.95,23,11,0,0.00
2013-5-14,57,54,51,52,50,46,94,85,77,29.97,29.93,23,12,0,0.00
2013-5-15,55,52,49,51,48,46,94,89,81,30.03,29.98,28,23,0,0.00
2013-5-16,55,49,51,54,30,-100,97,94,87,30.03,29.97,20,14,0,0.00
2013-5-17,56,53,50,51,44,-100,93,88,80,30.06,29.97,21,14,0,0.00
2013-5-18,61,55,49,52,50,47,93,83,70,30.13,30.05,23,14,0,0.00
2013-5-19,67,57,50,53,50,47,91,76,54,30.11,29.99,20,6,0,0.00
2013-5-20,75,60,51,55,49,45,91,72,35,30.00,29.93,26,10,0,0.00
2013-5-21,56,52,49,49,47,43,91,82,73,30.00,29.91,22,18,0,0.00
2013-5-22,55,51,47,44,40,34,82,67,51,30.01,29.90,21,11,0,0.00
2013-5-23,56,52,47,46,44,42,87,76,62,30.00,29.91,19,12,0,0.00
2013-5-24,57,51,46,47,45,44,91,81,68,30.00,29.95,24,10,0,0.00
2013-5-25,54,51,47,49,47,45,93,87,79,30.03,29.95,25,17,0,0.00
2013-5-26,56,53,50,53,51,48,96,93,86,30.11,30.04,18,11,0,0.00
2013-5-27,55,53,51,54,52,49,96,95,94,30.12,30.02,20,10,0,0.00
2013-5-28,57,55,52,55,53,51,97,94,88,30.00,29.93,18,9,0,0.00
2013-5-29,59,55,52,54,51,48,95,88,76,29.98,29.91,18,13,0,0.00
2013-5-30,60,54,48,50,48,46,93,80,69,29.99,29.93,22,7,0,0.00
2013-5-31,66,57,49,51,49,46,91,76,57,30.01,29.93,18,8,0,0.00
2013-6-1,64,56,50,52,49,47,90,78,62,29.93,29.78,14,7,0,0.00
2013-6-2,56,52,49,51,49,47,94,90,82,29.80,29.69,14,8,0,0.00
2013-6-3,62,55,50,53,50,48,94,87,72,29.84,29.72,15,6,0,0.00
2013-6-4,58,54,52,53,51,50,94,90,81,29.94,29.85,16,9,0,0.00
2013-6-5,56,53,51,51,50,49,93,89,83,29.99,29.93,11,8,0,0.00
2013-6-6,58,53,50,53,50,49,96,91,82,29.95,29.86,14,8,0,0.00
2013-6-7,69,57,51,58,53,50,97,87,65,29.89,29.72,8,4,0,0.00
2013-6-8,68,58,52,57,53,49,91,84,67,29.79,29.72,25,10,0,0.00
2013-6-9,58,56,54,55,54,53,96,93,90,29.87,29.79,11,8,0,0.00
2013-6-10,63,57,54,54,53,51,95,86,72,29.94,29.85,11,6,0,0.00
2013-6-11,61,56,53,54,52,50,94,87,78,29.98,29.90,15,6,0,0.00
2013-6-12,60,55,50,51,50,48,93,82,70,29.97,29.91,28,13,0,0.00
2013-6-13,64,56,48,52,49,45,90,79,64,30.10,29.99,21,8,0,0.00
2013-6-14,69,58,51,54,50,48,91,78,55,29.99,29.85,22,8,0,0.00
2013-6-15,53,51,49,50,48,47,94,93,90,29.98,29.83,23,11,0,0.00
2013-6-16,57,53,50,53,50,48,95,90,84,30.08,29.98,28,14,0,0.00
2013-6-17,59,54,50,55,52,49,96,92,86,30.10,30.03,18,15,0,0.00
2013-6-18,56,54,52,52,52,51,96,92,87,30.04,29.99,21,16,0,0.00
2013-6-19,60,56,52,51,50,48,94,82,71,30.06,30.00,20,14,0,0.00
2013-6-20,61,54,50,52,49,47,91,83,72,30.01,29.96,7,3,0,0.00
2013-6-22,64,59,53,52,52,51,95,77,64,29.93,29.87,26,13,0,0.00
2013-6-23,59,56,52,58,55,51,97,97,96,29.87,29.82,17,10,0,0.00
2013-6-24,59,55,53,58,54,52,100,97,95,29.89,29.79,7,4,0,0.00
2013-6-25,68,63,60,64,60,57,96,92,86,29.98,29.88,5,4,0,0.00
2013-6-26,69,64,60,64,61,59,97,91,80,30.05,29.96,15,5,0,0.00
2013-6-27,73,63,57,62,58,56,97,86,66,30.08,30.01,18,4,0,0.00
2013-6-28,73,62,55,61,57,54,95,85,65,30.03,29.94,11,4,0,0.00
2013-6-29,69,62,57,58,56,54,90,80,66,29.92,29.81,21,8,0,0.00
2013-6-30,61,59,56,56,55,54,93,88,83,29.85,29.77,14,10,0,0.00
2013-7-1,65,58,54,57,54,53,97,90,75,29.85,29.80,12,8,0,0.00
2013-7-2,63,57,55,58,55,54,97,94,84,29.90,29.83,20,11,0,0.00
2013-7-3,70,60,55,61,57,54,97,90,72,29.91,29.78,13,7,0,0.00
2013-7-4,64,61,57,58,56,51,93,85,75,29.79,29.71,17,8,0,0.00
2013-7-5,57,55,52,53,52,50,94,89,84,29.78,29.70,25,14,0,0.00
2013-7-6,59,55,52,54,52,50,93,90,82,29.80,29.75,13,9,0,0.00
2013-7-7,60,56,53,54,53,51,93,89,82,29.85,29.78,15,8,0,0.00
2013-7-8,60,56,54,55,53,52,95,90,81,29.96,29.85,11,7,0,0.00
2013-7-9,62,56,51,57,53,50,98,91,78,30.02,29.94,12,7,0,0.00
2013-7-10,58,54,52,55,52,51,97,95,89,29.98,29.91,13,7,0,0.00
2013-7-11,55,53,50,52,51,49,97,94,88,29.94,29.88,15,8,0,0.00
2013-7-12,57,54,52,53,52,50,94,91,86,29.94,29.88,18,9,0,0.00
2013-7-13,60,55,52,54,52,51,96,90,81,29.96,29.90,17,10,0,0.00
2013-7-14,56,53,52,53,52,51,96,93,89,30.00,29.92,11,7,0,0.00
2013-7-15,58,53,50,54,51,49,97,94,86,29.92,29.84,11,7,0,0.00
2013-7-16,61,56,53,56,54,51,96,92,81,30.01,29.86,11,6,0,0.00
2013-7-17,60,56,53,55,54,52,95,92,84,30.09,30.02,11,7,0,0.00
2013-7-18,58,54,52,54,52,51,97,94,88,30.06,29.95,11,7,0,0.00
2013-7-19,57,54,52,54,52,51,97,94,88,29.96,29.84,12,8,0,0.00
2013-7-20,57,52,51,53,48,-100,97,93,88,29.86,29.76,14,9,0,0.00
2013-7-21,56,53,51,54,52,50,97,95,91,29.85,29.77,12,9,0,0.00
2013-7-22,59,56,53,56,54,52,98,96,90,29.96,29.88,12,8,0,0.00
2013-7-23,63,57,55,58,55,54,97,93,84,30.00,29.93,10,6,0,0.00
2013-7-24,61,57,54,56,54,53,98,93,83,29.99,29.91,14,8,0,0.00
2013-7-25,58,54,52,55,52,51,97,95,90,30.02,29.93,13,8,0,0.00
2013-7-26,58,54,53,56,53,52,98,96,92,30.09,30.01,14,8,0,0.00
2013-7-27,57,54,52,54,53,52,100,98,91,30.03,29.87,7,5,0,0.00
2013-7-28,56,54,53,53,52,52,97,95,91,29.88,29.82,13,9,0,0.00
2013-7-29,60,56,53,55,53,52,95,91,84,29.99,29.84,12,10,0,0.00
2013-7-30,58,55,52,54,53,51,96,92,87,30.10,30.01,15,8,0,0.00
2013-7-31,59,55,52,54,52,51,97,93,84,30.08,30.00,26,12,0,0.00
2013-8-1,59,56,54,54,53,52,94,90,84,30.06,29.96,25,15,0,0.00
2013-8-2,58,54,51,54,52,50,97,93,84,29.97,29.91,14,8,0,0.00
2013-8-3,59,54,52,55,52,51,96,93,86,29.97,29.92,13,8,0,0.00
2013-8-4,57,54,52,53,52,51,97,94,87,30.01,29.96,12,7,0,0.00
2013-8-5,57,54,52,54,52,51,96,94,88,30.02,29.95,11,6,0,0.00
2013-8-6,59,56,52,56,54,51,97,92,85,30.03,29.98,12,6,0,0.00
2013-8-7,62,58,55,57,55,54,97,92,80,30.10,30.03,8,5,0,0.00
2013-8-8,61,57,54,57,55,53,97,93,83,30.03,29.93,21,7,0,0.00
2013-8-9,61,56,53,57,54,52,97,94,87,29.98,29.92,10,6,0,0.00
2013-8-10,61,57,55,57,55,54,97,94,85,30.04,29.99,19,8,0,0.00
2013-8-11,57,55,54,55,54,53,98,96,92,30.01,29.94,20,9,0,0.00
2013-8-12,61,56,53,57,54,52,98,95,85,29.99,29.94,14,8,0,0.00
2013-8-13,68,58,55,59,52,-100,96,85,67,29.97,29.91,21,7,0,0.00
2013-8-14,61,58,53,59,55,52,97,93,84,29.97,29.90,23,12,0,0.00
2013-8-15,64,55,58,61,42,-100,97,90,91,29.96,29.90,22,12,0,0.00
2013-8-16,62,57,56,60,54,-100,98,94,92,29.98,29.94,19,8,0,0.00
2013-8-17,63,57,55,59,53,-100,97,92,87,29.98,29.87,23,10,0,0.00
2013-8-18,72,61,55,61,57,54,97,87,65,29.87,29.78,6,4,0,0.00
2013-8-19,68,59,57,58,53,-100,96,88,71,29.88,29.80,18,7,0,0.00
2013-8-20,64,59,56,59,57,55,97,91,81,29.89,29.82,17,9,0,0.00
2013-8-21,62,58,56,56,55,53,94,88,81,29.93,29.87,13,8,0,0.00
2013-8-22,63,59,57,55,55,54,91,85,76,29.96,29.89,20,9,0,0.00
2013-8-23,57,56,54,55,54,53,95,92,90,29.92,29.80,24,9,0,0.00
2013-8-24,62,57,55,58,53,-100,97,91,86,29.89,29.82,24,14,0,0.00
2013-8-25,67,61,59,63,60,58,97,95,88,29.93,29.88,9,4,0,0.00
2013-8-26,62,59,57,58,57,55,95,91,83,30.00,29.90,20,9,0,0.00
2013-8-27,59,56,54,57,55,53,97,95,93,29.90,29.87,7,5,0,0.00
2013-8-28,65,62,59,62,60,58,98,95,89,29.93,29.87,21,14,0,0.00
2013-8-29,66,62,59,62,60,58,98,95,86,30.05,29.94,22,9,0,0.00
2013-8-30,69,62,58,63,59,57,97,91,80,30.02,29.91,19,9,0,0.00
2013-8-31,62,56,55,59,53,-100,97,94,91,29.97,29.88,21,11,0,0.00
2013-9-1,64,59,55,60,57,54,97,94,85,29.94,29.89,19,12,0,0.00
2013-9-2,68,63,60,63,61,59,97,92,82,29.95,29.89,18,11,0,0.00
2013-9-3,66,61,57,61,59,56,97,92,80,30.00,29.93,23,12,0,0.00
2013-9-4,66,61,58,61,59,57,96,92,83,30.02,29.93,22,15,0,0.00
2013-9-5,66,61,58,60,58,56,96,90,78,30.01,29.94,19,13,0,0.00
2013-9-6,78,67,56,60,54,50,93,67,42,29.98,29.83,15,5,0,0.00
2013-9-7,75,62,55,58,49,-100,94,71,52,29.85,29.82,13,10,0,0.00
2013-9-8,64,58,54,58,56,53,97,92,80,29.86,29.76,13,6,0,0.00
2013-9-9,67,58,53,58,56,52,97,92,72,29.80,29.71,23,9,0,0.00
2013-9-10,66,61,56,63,58,55,97,91,80,29.87,29.73,12,8,0,0.00
2013-9-11,67,63,61,59,58,57,91,85,75,29.99,29.89,9,6,0,0.00
2013-9-12,64,60,57,60,58,56,96,94,85,29.97,29.88,18,8,0,0.00
2013-9-13,59,56,54,57,55,53,97,96,93,29.90,29.75,24,13,0,0.00
2013-9-14,60,55,53,57,52,-100,100,94,89,29.80,29.73,24,16,0,0.00
2013-9-15,65,60,56,59,56,54,96,88,77,29.86,29.76,21,16,0,0.00
2013-9-16,63,59,56,59,57,55,97,92,81,29.89,29.78,23,12,0,0.00
2013-9-17,63,59,56,56,55,53,96,88,75,29.87,29.82,20,14,0,0.00
2013-9-18,57,56,54,54,52,51,91,89,84,29.87,29.83,7,4,0,0.00
2013-9-19,70,59,54,53,51,49,91,78,51,29.83,29.75,15,7,0,0.00
2013-9-20,68,59,54,62,57,51,97,91,80,29.85,29.76,10,7,0,0.00
2013-9-21,63,59,57,60,55,-100,96,90,87,29.87,29.80,11,6,0,0.00
2013-9-22,63,59,54,56,55,53,96,86,72,29.98,29.89,16,8,0,0.00
2013-9-23,71,63,57,61,57,53,94,82,66,30.01,29.93,19,7,0,0.00
2013-9-24,63,59,56,57,55,52,93,87,81,29.99,29.91,19,10,0,0.00
2013-9-25,60,57,55,52,50,47,87,77,70,29.93,29.81,19,12,0,0.00
2013-9-26,64,59,53,49,45,42,73,62,46,29.96,29.84,15,6,0,0.00
2013-9-27,72,64,54,49,43,40,83,47,33,30.08,30.02,16,6,0,0.00
2013-9-28,61,55,53,56,47,-100,92,80,74,30.06,30.00,21,6,0,0.00
2013-9-29,68,62,55,62,58,54,95,89,76,30.10,30.04,12,4,0,0.00
2013-9-30,65,62,57,63,60,56,96,94,92,30.06,29.97,15,5,0,0.00
2013-10-1,64,60,55,52,51,51,87,73,64,29.94,29.92,12,6,0,0.00
2013-10-2,61,57,53,52,50,46,91,77,65,30.00,29.92,19,8,0,0.00
2013-10-3,68,60,52,47,43,34,79,56,28,30.06,29.95,17,5,0,0.00
2013-10-4,77,70,63,37,34,32,35,28,20,30.07,29.97,13,7,0,0.00
2013-10-5,81,71,63,42,35,31,43,29,16,30.18,30.08,7,4,0,0.00
2013-10-6,80,71,62,46,38,32,49,31,21,30.10,30.00,8,3,0,0.00
2013-10-7,70,63,54,51,42,33,87,50,28,29.98,29.88,17,6,0,0.00
2013-10-8,65,56,52,53,49,48,90,80,54,29.90,29.72,12,5,0,0.00
2013-10-9,61,55,50,49,47,44,91,76,53,29.72,29.62,15,5,0,0.00
2013-10-10,60,54,51,51,49,47,92,83,72,29.98,29.75,12,5,0,0.00
2013-10-11,56,51,49,50,48,47,94,90,79,30.08,29.98,10,6,0,0.00
2013-10-12,53,50,48,50,46,-100,95,89,86,29.99,29.90,18,9,0,0.00
2013-10-13,66,56,50,54,48,43,95,79,54,30.04,29.91,14,5,0,0.00
2013-10-14,72,62,55,52,46,41,86,58,36,30.10,29.99,8,3,0,0.00
2013-10-15,75,65,57,52,42,35,78,46,25,30.03,29.94,9,3,0,0.00
2013-10-16,78,67,59,52,42,37,79,42,24,30.07,29.98,6,3,0,0.00
2013-10-17,77,64,54,50,43,36,83,50,26,30.06,29.96,8,2,0,0.00
2013-10-18,62,53,48,53,49,46,95,87,69,30.05,29.98,5,2,0,0.00
2013-10-19,69,51,47,53,45,-100,94,84,56,30.06,29.99,3,1,0,0.00
2013-10-20,57,50,46,53,48,45,95,91,81,30.02,29.91,13,5,0,0.00
2013-10-21,53,50,48,50,48,47,97,95,87,30.00,29.92,12,6,0,0.00
2013-10-22,59,50,48,54,49,47,97,95,80,30.00,29.92,12,4,0,0.00
2013-10-23,53,49,47,52,48,46,97,96,89,29.96,29.91,11,5,0,0.00
2013-10-24,55,51,49,50,49,48,96,92,83,30.07,29.97,7,5,0,0.00
2013-10-25,59,55,50,52,50,47,93,84,77,30.15,30.07,12,4,0,0.00
2013-10-26,67,53,49,56,47,-100,95,87,54,30.13,30.01,11,3,0,0.00
2013-10-27,53,51,48,51,49,47,97,93,86,30.02,29.69,19,10,0,0.00
2013-10-28,55,52,50,50,46,-100,92,88,82,29.80,29.66,21,10,0,0.00
2013-10-29,57,54,50,51,49,47,93,85,73,30.03,29.83,8,3,0,0.00
2013-10-30,60,54,49,52,49,47,94,84,68,30.14,30.04,9,3,0,0.00
2013-10-31,68,58,50,51,48,45,91,72,49,30.16,30.06,5,2,0,0.00
2013-11-1,71,60,53,51,48,42,89,65,43,30.12,30.00,8,2,0,0.00
2013-11-2,57,52,49,53,46,-100,96,86,68,30.01,29.89,23,10,0,0.00
2013-11-3,58,54,49,48,42,38,83,65,49,30.03,29.91,9,4,0,0.00
2013-11-4,64,56,48,43,40,36,83,58,40,30.04,29.90,10,4,0,0.00
2013-11-5,70,62,54,43,38,35,58,42,30,30.20,30.05,8,2,0,0.00
2013-11-6,68,62,54,43,42,40,67,48,38,30.24,30.15,4,2,0,0.00
2013-11-7,68,60,54,52,46,40,93,62,46,30.14,30.07,13,4,0,0.00
2013-11-8,67,54,50,54,50,47,96,86,62,30.06,29.95,16,5,0,0.00
2013-11-9,65,55,49,52,50,47,94,84,59,30.02,29.96,11,4,0,0.00
2013-11-10,59,54,51,52,50,49,93,88,76,30.10,30.02,9,4,0,0.00
2013-11-11,64,56,52,54,50,48,91,82,69,30.14,30.07,9,3,0,0.00
2013-11-12,66,60,55,53,51,48,86,71,59,30.25,30.14,5,2,0,0.00
2013-11-13,67,56,52,57,53,50,96,89,67,30.24,30.10,17,4,0,0.00
2013-11-14,53,52,51,52,50,48,97,93,85,30.09,29.88,22,8,0,0.00
2013-11-15,57,52,50,48,47,44,91,82,65,29.88,29.72,18,8,0,0.00
2013-11-16,57,52,47,51,48,44,94,86,67,29.90,29.75,13,7,0,0.00
2013-11-17,56,52,50,49,48,45,95,86,75,30.06,29.92,9,5,0,0.00
2013-11-18,55,51,47,49,47,45,93,88,79,30.14,30.07,6,3,0,0.00
2013-11-19,58,55,52,55,52,48,95,89,83,30.08,29.93,3,1,0,0.00
2013-11-20,57,55,51,56,54,49,96,95,93,29.93,29.82,14,5,0,0.00
2013-11-21,59,54,50,49,39,27,95,61,29,29.95,29.88,9,6,0,0.00
2013-11-22,69,61,55,31,24,19,35,25,17,29.99,29.90,10,5,0,0.00
2013-11-23,63,57,53,50,35,25,88,47,27,30.07,29.93,14,7,0,0.00
2013-11-24,61,53,49,48,46,41,91,76,56,30.22,30.08,5,2,0,0.00
2013-11-25,61,54,48,46,45,44,90,74,58,30.30,30.23,4,2,0,0.00
2013-11-26,60,54,50,46,44,42,82,70,52,30.24,30.05,9,4,0,0.00
2013-11-27,61,55,50,47,46,45,84,71,57,30.01,29.83,4,2,0,0.00
2013-11-28,65,57,52,48,46,42,82,65,50,30.04,29.85,8,2,0,0.00
2013-11-29,66,57,52,54,47,42,90,71,45,30.19,30.06,4,1,0,0.00
2013-11-30,64,53,48,54,48,-100,96,85,66,30.25,30.17,4,1,0,0.00
2013-12-1,70,57,50,52,48,43,92,74,44,30.32,30.20,8,2,0,0.00
2013-12-2,56,52,47,53,50,45,96,92,78,30.22,29.96,20,9,0,0.00
2013-12-3,54,50,47,53,39,28,96,68,47,29.96,29.83,22,9,0,0.00
2013-12-4,50,46,43,32,27,22,61,48,39,30.04,29.92,7,4,0,0.00
2013-12-14,60,51,43,44,38,-100,94,66,42,30.36,30.28,7,3,0,0.00
2013-12-15,59,52,45,41,39,38,82,63,48,30.34,30.21,8,5,0,0.00
2013-12-16,65,56,49,39,38,36,67,51,34,30.22,30.10,9,5,0,0.00
2013-12-17,61,56,50,44,41,38,75,58,47,30.15,30.01,7,4,0,0.00
2013-12-18,56,51,49,47,44,38,91,78,52,30.01,29.75,19,8,0,0.00
2013-12-19,55,51,46,46,38,22,90,63,31,29.92,29.71,22,8,0,0.00
2013-12-20,56,51,47,46,31,16,89,51,25,29.99,29.91,8,3,0,0.00